Time;durP1;ratioP1;P1;durP2;ratioP2;P2;SDS_P1;SDS_P2;PMS_P1;PMS_P2;Temp;Humidity;BMP_temperature;BMP_pressure;BME280_temperature;BME280_humidity;BME280_pressure;Samples;Min_cycle;Max_cycle;Signal;HPM_P1;HPM_P2
2021/03/22 00:00:51;;;;;;;9.93;3.17;;;;;;;7.39;67.37;101792.66;4432238;32;20073;-76
2021/03/22 00:03:20;;;;;;;9.30;2.80;;;;;;;7.43;67.45;101793.50;4435579;32;20060;-78
2021/03/22 00:05:46;;;;;;;10.70;3.03;;;;;;;7.41;67.54;101781.91;4438682;32;20091;-76
2021/03/22 00:08:11;;;;;;;9.32;2.53;;;;;;;7.38;67.65;101782.69;4436590;32;20093;-77
2021/03/22 00:10:42;;;;;;;8.57;2.83;;;;;;;7.36;67.77;101783.06;4438179;32;20704;-79
2021/03/22 00:13:09;;;;;;;14.48;3.50;;;;;;;7.35;67.90;101783.47;4437028;32;20375;-77
2021/03/22 00:15:36;;;;;;;8.95;2.78;;;;;;;7.30;68.07;101786.66;4433736;32;20395;-78
2021/03/22 00:18:05;;;;;;;10.88;2.87;;;;;;;7.31;68.21;101785.44;4436323;32;20073;-77
2021/03/22 00:20:30;;;;;;;10.00;2.92;;;;;;;7.32;68.20;101781.44;4432139;32;20513;-76
2021/03/22 00:22:56;;;;;;;12.77;2.70;;;;;;;7.29;68.34;101779.41;4433656;32;20050;-76
2021/03/22 00:25:23;;;;;;;12.65;5.30;;;;;;;7.27;68.08;101776.22;4434760;32;20062;-76
2021/03/22 00:27:49;;;;;;;7.03;2.17;;;;;;;7.33;68.08;101771.88;4434460;32;20037;-78
2021/03/22 00:30:20;;;;;;;10.50;2.22;;;;;;;7.39;67.89;101771.09;4437079;32;20068;-78
2021/03/22 00:32:47;;;;;;;7.57;2.10;;;;;;;7.42;67.78;101777.88;4439395;32;20060;-79
2021/03/22 00:35:13;;;;;;;10.35;2.42;;;;;;;7.41;67.75;101774.31;4435869;32;20045;-76
2021/03/22 00:37:38;;;;;;;10.88;2.83;;;;;;;7.38;67.90;101766.69;4437646;32;20085;-78
2021/03/22 00:40:05;;;;;;;8.57;2.83;;;;;;;7.21;68.51;101766.59;4433440;32;20098;-77
2021/03/22 00:42:30;;;;;;;9.05;2.53;;;;;;;7.22;68.63;101771.81;4434728;32;20029;-76
2021/03/22 00:44:56;;;;;;;7.45;2.40;;;;;;;7.19;68.77;101771.78;4434465;32;20115;-77
2021/03/22 00:47:22;;;;;;;10.85;2.55;;;;;;;7.17;68.81;101769.34;4436139;32;20045;-78
2021/03/22 00:49:47;;;;;;;7.95;2.40;;;;;;;7.15;68.89;101763.34;4435044;32;20084;-78
2021/03/22 00:52:13;;;;;;;8.63;2.35;;;;;;;7.12;69.15;101766.13;4432431;32;20149;-76
2021/03/22 00:54:40;;;;;;;10.50;2.15;;;;;;;7.16;69.13;101758.56;4435867;32;20049;-78
2021/03/22 00:57:08;;;;;;;14.73;3.12;;;;;;;7.17;69.12;101760.97;4431572;32;20422;-76
2021/03/22 00:59:34;;;;;;;8.23;2.22;;;;;;;7.17;69.08;101757.34;4435062;32;20107;-76
2021/03/22 01:02:02;;;;;;;7.70;2.55;;;;;;;7.16;69.09;101752.97;4436890;32;20073;-78
2021/03/22 01:04:28;;;;;;;6.18;2.35;;;;;;;7.20;69.01;101751.78;4431342;32;20037;-76
2021/03/22 01:07:08;;;;;;;4.85;2.30;;;;;;;7.13;68.76;101753.72;4431781;32;20144;-76
2021/03/22 01:09:46;;;;;;;6.70;2.10;;;;;;;7.13;69.10;101745.34;4418290;32;20056;-78
2021/03/22 01:12:25;;;;;;;8.45;2.45;;;;;;;7.16;68.93;101745.37;4420822;32;20252;-75
2021/03/22 01:15:06;;;;;;;6.62;2.28;;;;;;;7.08;69.07;101743.72;4427524;32;20546;-76
2021/03/22 01:17:31;;;;;;;11.57;3.17;;;;;;;7.06;69.22;101731.31;4428953;32;20373;-78
2021/03/22 01:19:57;;;;;;;8.85;2.53;;;;;;;6.97;69.46;101736.44;4428626;32;20092;-78
2021/03/22 01:22:23;;;;;;;7.37;2.35;;;;;;;6.95;69.43;101738.81;4427307;32;20116;-77
2021/03/22 01:24:48;;;;;;;5.03;2.20;;;;;;;6.98;69.43;101733.25;4426342;32;20038;-77
2021/03/22 01:27:14;;;;;;;9.70;2.78;;;;;;;6.95;69.46;101722.84;4427801;32;20093;-78
2021/03/22 01:29:42;;;;;;;5.65;2.42;;;;;;;6.90;69.65;101728.78;4429346;32;20054;-78
2021/03/22 01:32:11;;;;;;;7.62;2.40;;;;;;;6.91;69.85;101729.59;4427825;32;20050;-78
2021/03/22 01:34:37;;;;;;;10.15;2.35;;;;;;;6.91;69.85;101727.63;4425831;32;20045;-76
2021/03/22 01:37:04;;;;;;;8.70;2.47;;;;;;;6.87;69.82;101731.59;4429001;32;20081;-76
2021/03/22 01:39:34;;;;;;;9.93;2.75;;;;;;;6.71;69.88;101722.66;4426923;32;20141;-78
2021/03/22 01:42:25;;;;;;;8.88;2.25;;;;;;;6.77;70.07;101724.72;4429297;32;20085;-76
2021/03/22 01:44:59;;;;;;;6.37;2.60;;;;;;;6.73;70.32;101726.69;4426610;32;20037;-78
2021/03/22 01:47:29;;;;;;;7.53;2.87;;;;;;;6.74;70.45;101727.47;4427608;32;20091;-76
2021/03/22 01:52:49;;;;;;;11.07;3.95;;;;;;;7.09;69.16;101734.09;3987419;31;15140204;-75
2021/03/22 01:55:15;;;;;;;14.25;3.72;;;;;;;7.09;69.16;101734.09;4456357;32;20335;-79
2021/03/22 01:57:44;;;;;;;6.57;2.53;;;;;;;6.55;70.35;101717.38;4455095;32;20165;-78
2021/03/22 02:00:32;;;;;;;7.87;2.80;;;;;;;6.58;69.96;101719.38;4442920;32;20076;-78
2021/03/22 02:03:04;;;;;;;9.70;2.70;;;;;;;6.60;70.41;101711.37;4425406;32;20433;-80
2021/03/22 02:05:46;;;;;;;11.20;2.50;;;;;;;6.55;71.48;101711.78;4433432;32;20071;-78
2021/03/22 02:08:17;;;;;;;10.48;3.33;;;;;;;6.63;71.55;101709.84;4440321;32;20381;-78
2021/03/22 02:10:44;;;;;;;9.70;3.08;;;;;;;6.68;71.42;101712.25;4426165;32;20401;-78
2021/03/22 02:13:13;;;;;;;9.02;2.60;;;;;;;6.71;71.25;101705.88;4439433;32;20147;-78
2021/03/22 02:15:42;;;;;;;11.55;3.22;;;;;;;6.75;71.36;101703.94;4441498;32;20474;-79
2021/03/22 02:29:54;;;;;;;8.50;3.25;;;;;;;6.81;69.18;101708.75;3982450;32;15025239;-75
2021/03/22 02:35:03;;;;;;;10.65;3.12;;;;;;;6.91;69.15;101708.03;4002131;31;15016533;-76
2021/03/22 02:40:34;;;;;;;10.20;3.42;;;;;;;6.68;70.13;101698.25;3984741;32;15025845;-75
2021/03/22 02:43:03;;;;;;;8.75;2.97;;;;;;;6.68;70.13;101698.25;4442801;32;20335;-75
2021/03/22 02:45:33;;;;;;;9.50;3.67;;;;;;;6.12;71.51;101695.81;4440878;32;20418;-76
2021/03/22 02:47:59;;;;;;;7.55;3.17;;;;;;;6.05;71.78;101702.13;4439166;32;20444;-75
2021/03/22 02:50:31;;;;;;;8.13;2.67;;;;;;;5.99;72.07;101695.28;4439919;32;20039;-76
2021/03/22 02:53:36;;;;;;;8.75;2.95;;;;;;;5.98;71.55;101701.25;4435554;32;20551;-77
2021/03/22 03:01:25;;;;;;;11.63;3.30;;;;;;;6.17;71.75;101703.88;4000017;31;15012978;-76
2021/03/22 03:03:52;;;;;;;11.73;3.72;;;;;;;6.17;71.75;101703.88;4457298;32;20120;-77
2021/03/22 03:06:18;;;;;;;11.45;3.55;;;;;;;5.68;73.25;101697.75;4459219;32;20042;-76
2021/03/22 03:08:44;;;;;;;10.20;3.50;;;;;;;5.62;73.45;101693.69;4457561;32;20144;-76
2021/03/22 03:11:11;;;;;;;6.68;2.92;;;;;;;5.55;73.34;101693.59;4458597;32;20053;-77
2021/03/22 03:13:38;;;;;;;7.85;3.67;;;;;;;5.63;73.01;101690.50;4456274;32;20080;-75
2021/03/22 03:16:04;;;;;;;9.98;3.50;;;;;;;5.59;72.97;101694.44;4456705;32;20033;-74
2021/03/22 03:18:30;;;;;;;7.32;3.60;;;;;;;5.53;73.17;101691.19;4457467;32;20100;-77
2021/03/22 03:20:57;;;;;;;16.80;3.67;;;;;;;5.50;73.51;101685.56;4457929;32;20029;-77
2021/03/22 03:23:24;;;;;;;15.10;3.78;;;;;;;5.45;73.44;101689.50;4456068;32;20088;-77
2021/03/22 03:25:50;;;;;;;7.47;3.40;;;;;;;5.45;73.52;101683.09;4455917;32;20103;-75
2021/03/22 03:28:16;;;;;;;8.07;3.80;;;;;;;5.38;73.53;101675.47;4457034;32;20029;-77
2021/03/22 03:30:41;;;;;;;8.63;3.65;;;;;;;5.39;73.14;101682.66;4457585;32;20402;-75
2021/03/22 03:33:11;;;;;;;10.20;3.78;;;;;;;5.37;73.54;101675.84;4458316;32;20469;-75
2021/03/22 03:35:38;;;;;;;8.90;3.72;;;;;;;5.35;73.45;101678.22;4458284;32;20109;-76
2021/03/22 03:38:06;;;;;;;10.07;3.95;;;;;;;5.32;73.85;101678.97;4456602;32;20232;-75
2021/03/22 03:40:37;;;;;;;11.68;3.50;;;;;;;5.26;73.90;101681.31;4457590;32;20072;-75
2021/03/22 03:43:03;;;;;;;7.85;3.87;;;;;;;5.18;74.24;101671.22;4441897;32;20063;-77
2021/03/22 03:45:34;;;;;;;11.27;4.43;;;;;;;5.20;74.45;101677.25;4458637;32;20493;-76
2021/03/22 03:47:59;;;;;;;12.20;4.40;;;;;;;5.23;74.37;101678.47;4457175;32;20041;-77
2021/03/22 03:50:29;;;;;;;15.77;6.10;;;;;;;5.19;74.60;101680.41;4456462;32;20412;-75
2021/03/22 03:52:55;;;;;;;15.75;6.28;;;;;;;5.23;74.60;101673.69;4456859;32;20125;-77
2021/03/22 03:55:27;;;;;;;15.80;8.65;;;;;;;5.42;73.98;101672.69;4456696;32;20021;-75
2021/03/22 03:57:53;;;;;;;17.98;8.82;;;;;;;5.42;73.65;101675.50;4456760;32;20511;-77
2021/03/22 04:00:31;;;;;;;22.58;12.15;;;;;;;5.38;73.89;101669.06;4456815;32;20528;-76
2021/03/22 04:02:59;;;;;;;21.00;13.07;;;;;;;5.38;74.19;101667.09;4456142;32;20432;-75
2021/03/22 04:05:27;;;;;;;22.25;10.88;;;;;;;5.40;74.16;101675.88;4457228;32;20472;-75
2021/03/22 04:07:54;;;;;;;15.25;8.60;;;;;;;5.41;74.05;101666.34;4455661;32;20111;-75
2021/03/22 04:10:19;;;;;;;15.15;8.13;;;;;;;5.38;74.25;101669.06;4458787;32;20418;-77
2021/03/22 04:12:45;;;;;;;16.52;9.10;;;;;;;5.14;74.98;101670.38;4446391;32;20068;-75
2021/03/22 04:15:14;;;;;;;22.15;11.77;;;;;;;5.13;75.07;101666.00;4448460;32;20093;-77
2021/03/22 04:17:41;;;;;;;23.00;11.00;;;;;;;5.10;75.45;101665.94;4446239;32;20034;-76
2021/03/22 04:20:08;;;;;;;17.48;10.40;;;;;;;5.05;75.48;101655.91;4445871;32;20085;-76
2021/03/22 04:22:33;;;;;;;26.55;10.65;;;;;;;5.15;75.23;101658.03;4446909;32;20091;-75
2021/03/22 04:24:59;;;;;;;19.85;9.18;;;;;;;5.16;74.81;101659.63;4446279;32;20046;-75
2021/03/22 04:27:25;;;;;;;17.48;7.62;;;;;;;5.14;74.58;101659.22;4448183;32;20097;-76
2021/03/22 04:29:51;;;;;;;23.25;7.12;;;;;;;5.00;74.70;101655.44;4429499;32;20059;-77
2021/03/22 04:32:16;;;;;;;14.07;5.50;;;;;;;5.02;74.79;101662.25;4446762;32;20429;-77
2021/03/22 04:34:43;;;;;;;11.88;5.78;;;;;;;4.98;74.56;101643.87;4447795;32;20098;-75
2021/03/22 04:37:09;;;;;;;17.52;5.60;;;;;;;4.97;74.77;101651.41;4446545;32;20120;-80
2021/03/22 04:39:36;;;;;;;10.75;5.87;;;;;;;4.91;74.76;101633.41;4445214;32;20155;-80
2021/03/22 04:42:02;;;;;;;16.23;5.55;;;;;;;4.80;75.65;101640.03;4445504;32;20099;-79
2021/03/22 04:44:28;;;;;;;16.83;5.68;;;;;;;4.85;75.19;101640.50;4445264;32;20025;-79
2021/03/22 04:46:55;;;;;;;9.50;5.22;;;;;;;4.91;75.10;101638.97;4447143;32;20154;-77
2021/03/22 04:49:21;;;;;;;15.18;5.72;;;;;;;4.95;75.28;101650.19;4432164;32;20096;-77
2021/03/22 04:51:47;;;;;;;19.15;9.30;;;;;;;4.83;75.43;101648.44;4446634;32;20410;-79
2021/03/22 04:54:13;;;;;;;27.48;11.32;;;;;;;4.85;75.73;101653.66;4445817;32;20117;-79
2021/03/22 04:56:38;;;;;;;25.12;11.10;;;;;;;4.85;75.79;101636.91;4446506;32;20100;-79
2021/03/22 04:59:05;;;;;;;17.37;7.87;;;;;;;4.90;74.86;101642.16;4444072;32;20067;-76
2021/03/22 05:01:31;;;;;;;22.02;7.57;;;;;;;4.87;74.83;101640.94;4445330;32;20434;-75
2021/03/22 05:03:57;;;;;;;12.50;4.50;;;;;;;4.78;75.16;101642.38;4446075;32;20100;-76
2021/03/22 05:06:22;;;;;;;12.43;4.25;;;;;;;4.76;75.56;101644.75;4446778;32;20034;-76
2021/03/22 05:08:48;;;;;;;16.40;5.82;;;;;;;4.71;75.07;101637.53;4444681;32;20430;-74
2021/03/22 05:11:17;;;;;;;16.23;6.05;;;;;;;4.76;75.17;101628.84;4445970;32;20064;-74
2021/03/22 05:13:42;;;;;;;14.13;6.00;;;;;;;4.76;74.51;101639.19;4445181;32;20034;-77
2021/03/22 05:16:08;;;;;;;14.70;6.15;;;;;;;4.67;75.36;101627.50;4446587;32;20724;-77
2021/03/22 05:18:34;;;;;;;11.55;6.22;;;;;;;4.55;76.06;101638.88;4446153;32;20166;-75
2021/03/22 05:21:03;;;;;;;19.25;7.03;;;;;;;4.58;76.35;101635.34;4446674;32;20068;-75
2021/03/22 05:23:30;;;;;;;17.60;7.25;;;;;;;4.61;76.39;101638.19;4443497;32;20092;-76
2021/03/22 05:25:57;;;;;;;12.70;7.25;;;;;;;4.64;76.32;101637.44;4446139;32;20435;-77
2021/03/22 05:28:25;;;;;;;18.12;6.45;;;;;;;4.80;75.26;101637.25;4444872;32;21668;-76
2021/03/22 05:30:51;;;;;;;16.52;6.10;;;;;;;4.66;75.62;101639.84;4443924;32;20490;-76
2021/03/22 05:33:19;;;;;;;21.45;7.30;;;;;;;4.68;75.93;101643.03;4445093;32;20053;-76
2021/03/22 05:35:48;;;;;;;20.27;9.20;;;;;;;4.65;75.74;101638.22;4446338;32;20138;-76
2021/03/22 05:38:13;;;;;;;20.20;9.63;;;;;;;4.56;75.93;101629.31;4446351;32;20092;-74
2021/03/22 06:00:24;;;;;;;22.50;8.05;;;;;;;5.39;75.11;101657.53;3997031;31;15018884;-74
2021/03/22 06:05:56;;;;;;;11.40;5.60;;;;;;;5.00;76.06;101650.66;4005075;31;15016316;-78
2021/03/22 06:11:15;;;;;;;14.82;6.70;;;;;;;5.83;73.36;101650.03;3983303;32;15022958;-74
2021/03/22 06:13:45;;;;;;;16.25;6.47;;;;;;;5.83;73.36;101650.03;4441511;32;20073;-78
2021/03/22 06:16:31;;;;;;;14.43;6.12;;;;;;;5.49;74.26;101648.47;4434174;32;20053;-77
2021/03/22 06:19:01;;;;;;;16.98;6.75;;;;;;;5.63;74.47;101651.41;4440429;32;20101;-78
2021/03/22 06:21:29;;;;;;;22.87;8.32;;;;;;;5.79;74.32;101659.53;4439798;32;20085;-77
2021/03/22 06:23:55;;;;;;;18.15;7.95;;;;;;;5.59;75.00;101658.16;4437911;32;20541;-79
2021/03/22 06:26:45;;;;;;;21.23;8.43;;;;;;;5.65;74.79;101657.41;4440097;32;20112;-78
2021/03/22 06:31:56;;;;;;;19.35;8.70;;;;;;;6.35;73.17;101661.69;3975245;32;15027492;-79
2021/03/22 06:34:40;;;;;;;22.62;8.38;;;;;;;6.36;73.18;101661.69;4425171;32;20074;-78
2021/03/22 06:37:08;;;;;;;19.67;8.50;;;;;;;5.97;72.67;101658.56;4427789;32;20073;-79
2021/03/22 06:39:34;;;;;;;20.00;7.10;;;;;;;6.02;73.52;101652.62;4426814;32;20316;-77
2021/03/22 06:42:00;;;;;;;16.30;7.35;;;;;;;6.12;73.20;101657.50;4426598;32;20124;-80
2021/03/22 06:50:12;;;;;;;28.50;10.00;;;;;;;6.89;72.77;101648.03;3984810;32;15022837;-78
2021/03/22 06:52:42;;;;;;;23.40;8.25;;;;;;;6.89;72.77;101648.03;4433713;32;20270;-78
2021/03/22 06:55:30;;;;;;;21.12;8.10;;;;;;;6.47;73.59;101650.59;4435725;32;20113;-78
2021/03/22 06:57:56;;;;;;;21.33;7.87;;;;;;;6.62;73.50;101652.28;4433931;32;20327;-80
2021/03/22 07:00:26;;;;;;;20.85;7.35;;;;;;;6.59;73.74;101650.28;4434738;32;20086;-78
2021/03/22 07:05:33;;;;;;;19.12;6.78;;;;;;;6.93;73.67;101657.28;3988048;32;15031703;-78
2021/03/22 07:10:45;;;;;;;22.00;8.37;;;;;;;7.46;71.94;101649.91;4000997;31;15018014;-75
2021/03/22 07:13:29;;;;;;;23.65;7.80;;;;;;;7.59;71.91;101651.13;4460092;32;20801;-76
2021/03/22 07:16:12;;;;;;;25.60;7.60;;;;;;;7.62;71.76;101653.13;4463507;32;20065;-78
2021/03/22 07:18:38;;;;;;;23.35;9.23;;;;;;;7.95;71.38;101650.00;4459729;32;20453;-77
2021/03/22 07:21:18;;;;;;;20.67;7.85;;;;;;;7.92;71.68;101650.81;4460363;32;20040;-77
2021/03/22 07:23:52;;;;;;;16.90;7.43;;;;;;;8.15;71.58;101654.81;4460054;32;20119;-76
2021/03/22 07:39:52;;;;;;;18.08;4.82;;;;;;;10.10;68.95;101637.69;3979830;32;15029630;-79
2021/03/22 07:48:03;;;;;;;5.87;2.50;;;;;;;10.44;66.78;101637.00;3977888;32;15023250;-79
2021/03/22 07:50:35;;;;;;;10.27;3.30;;;;;;;10.44;66.78;101637.00;4434009;32;20160;-82
2021/03/22 07:55:55;;;;;;;6.57;2.53;;;;;;;10.62;65.94;101643.25;3975994;32;15027421;-81
2021/03/22 08:01:46;;;;;;;19.80;4.53;;;;;;;11.25;64.40;101634.09;3962553;32;15024622;-78
2021/03/22 08:04:52;;;;;;;6.93;2.45;;;;;;;11.25;64.40;101634.09;4410453;32;20117;-78
2021/03/22 08:21:15;;;;;;;7.50;3.28;;;;;;;12.03;60.04;101640.28;4445373;31;20699;-78
2021/03/22 08:23:54;;;;;;;9.00;3.20;;;;;;;12.03;60.04;101640.28;3957091;32;20102;-79
2021/03/22 08:26:28;;;;;;;11.85;3.50;;;;;;;12.08;59.60;101642.59;4412815;32;20088;-80
2021/03/22 08:32:12;;;;;;;8.88;3.85;;;;;;;13.26;56.75;101643.69;3973954;32;15026080;-82
2021/03/22 08:34:47;;;;;;;7.53;3.00;;;;;;;13.26;56.75;101643.69;4429604;32;20063;-84
2021/03/22 08:37:20;;;;;;;7.35;3.37;;;;;;;12.46;57.29;101640.37;4429303;32;20062;-83
2021/03/22 08:40:02;;;;;;;9.48;4.05;;;;;;;12.60;57.43;101638.09;4427176;32;20140;-82
2021/03/22 08:42:39;;;;;;;9.02;3.83;;;;;;;12.57;57.59;101644.59;4427886;32;20045;-83
2021/03/22 08:50:37;;;;;;;14.30;4.80;;;;;;;12.69;56.44;101660.09;3980373;32;15022908;-78
2021/03/22 08:55:51;;;;;;;13.07;4.82;;;;;;;12.06;57.70;101650.72;3979052;32;15022839;-81
2021/03/22 09:03:52;;;;;;;12.15;4.72;;;;;;;11.44;58.88;101665.25;3984529;32;15025133;-81
2021/03/22 09:11:42;;;;;;;14.73;4.72;;;;;;;11.15;59.60;101661.19;3980244;32;15025429;-84
2021/03/22 09:16:49;;;;;;;14.40;6.07;;;;;;;11.50;59.10;101655.09;3979282;32;15023455;-83
2021/03/22 09:30:11;;;;;;;10.00;4.70;;;;;;;11.79;57.86;101649.91;3979063;32;15025232;-83
2021/03/22 10:01:54;;;;;;;9.85;3.37;;;;;;;13.44;51.95;101656.22;3962290;32;15027006;-79
2021/03/22 10:10:01;;;;;;;12.90;4.25;;;;;;;14.25;49.82;101657.22;3971741;32;15024391;-77
2021/03/22 10:12:31;;;;;;;7.60;3.75;;;;;;;14.25;49.82;101657.22;4419935;32;20049;-81
2021/03/22 10:18:09;;;;;;;9.15;3.53;;;;;;;15.23;46.77;101663.09;3971082;32;15023368;-78
2021/03/22 10:20:44;;;;;;;10.75;3.87;;;;;;;15.23;46.77;101663.09;4432351;32;20068;-77
2021/03/22 10:26:09;;;;;;;8.98;3.20;;;;;;;16.20;43.71;101669.06;3985102;32;15025123;-77
2021/03/22 10:28:39;;;;;;;7.18;3.35;;;;;;;16.20;43.71;101669.06;4441077;32;20037;-80
2021/03/22 10:31:10;;;;;;;12.95;3.80;;;;;;;15.70;45.22;101652.00;4443424;32;20116;-79
2021/03/22 10:33:37;;;;;;;9.80;3.58;;;;;;;15.98;45.02;101666.09;4440567;32;20125;-83
2021/03/22 10:36:05;;;;;;;7.75;3.55;;;;;;;16.40;44.17;101657.44;4439848;32;20049;-77
2021/03/22 10:41:24;;;;;;;6.78;2.97;;;;;;;18.42;39.92;101667.37;3998343;31;15021516;-78
2021/03/22 10:43:56;;;;;;;14.45;4.68;;;;;;;18.42;39.92;101667.37;4454777;32;20099;-79
2021/03/22 10:46:25;;;;;;;8.93;3.33;;;;;;;17.83;40.09;101659.97;4453250;32;20077;-81
2021/03/22 10:54:22;;;;;;;10.60;3.67;;;;;;;17.91;39.51;101649.09;3993948;31;15023469;-81
2021/03/22 10:56:56;;;;;;;12.20;6.18;;;;;;;17.91;39.51;101649.09;4451368;32;20053;-79
2021/03/22 10:59:25;;;;;;;6.35;3.70;;;;;;;17.62;40.14;101643.72;4450327;32;20068;-81
2021/03/22 11:01:54;;;;;;;7.47;3.28;;;;;;;17.91;39.76;101649.88;4450891;32;20110;-76
2021/03/22 11:04:27;;;;;;;9.45;3.17;;;;;;;17.97;38.87;101638.69;4450448;32;20053;-81
2021/03/22 11:06:53;;;;;;;7.75;3.70;;;;;;;18.02;39.33;101638.88;4453523;32;20052;-80
2021/03/22 11:09:23;;;;;;;10.18;3.67;;;;;;;17.49;39.72;101646.63;4451138;32;20163;-78
2021/03/22 11:11:49;;;;;;;11.48;3.80;;;;;;;17.07;nan;101650.25;4454027;32;20090;-75
2021/03/22 11:14:19;;;;;;;11.40;3.62;;;;;;;16.96;41.51;101650.63;4452037;32;20057;-77
2021/03/22 11:16:45;;;;;;;12.13;3.72;;;;;;;16.74;41.70;101657.53;4450934;32;20110;-77
2021/03/22 11:19:44;;;;;;;10.35;3.85;;;;;;;16.45;42.94;101642.72;4437880;32;20389;-78
2021/03/22 11:25:24;;;;;;;11.43;3.80;;;;;;;17.11;41.84;101636.69;3981506;32;15028920;-76
2021/03/22 11:27:59;;;;;;;12.05;3.65;;;;;;;16.97;41.16;101642.91;4426362;32;20064;-77
2021/03/22 11:33:12;;;;;;;8.07;3.40;;;;;;;18.23;39.13;101640.03;3993498;31;15015514;-77
2021/03/22 11:35:38;;;;;;;9.23;3.30;;;;;;;18.23;39.13;101640.03;4457365;32;20124;-78
2021/03/22 11:38:04;;;;;;;10.15;4.03;;;;;;;18.06;39.14;101641.56;4459203;32;20141;-77
2021/03/22 11:40:33;;;;;;;25.62;7.15;;;;;;;17.88;39.23;101633.72;4455230;32;20111;-77
2021/03/22 11:43:21;;;;;;;9.80;5.30;;;;;;;17.94;39.23;101631.84;4459583;32;20037;-77
2021/03/22 11:45:47;;;;;;;14.25;5.37;;;;;;;17.51;39.81;101629.91;4456844;32;20114;-77
2021/03/22 11:54:03;;;;;;;14.20;6.37;;;;;;;17.65;40.18;101643.56;3989023;31;15015069;-78
2021/03/22 11:56:33;;;;;;;16.98;7.50;;;;;;;17.65;40.18;101643.56;4426073;32;20097;-77
2021/03/22 11:59:19;;;;;;;20.48;6.97;;;;;;;17.51;39.68;101638.44;4438835;32;20413;-77
2021/03/22 12:05:04;;;;;;;17.25;6.70;;;;;;;19.06;36.97;101631.97;3983065;32;15022634;-79
2021/03/22 12:10:17;;;;;;;15.10;3.90;;;;;;;18.88;37.16;101627.06;3979566;32;15028609;-79
2021/03/22 12:12:44;;;;;;;12.05;3.62;;;;;;;18.88;37.16;101627.06;4440601;32;20148;-77
2021/03/22 12:15:12;;;;;;;12.82;4.70;;;;;;;18.34;37.80;101614.72;4435233;32;20564;-77
2021/03/22 12:17:39;;;;;;;11.98;4.25;;;;;;;18.35;37.93;101628.50;4435605;32;21400;-76
2021/03/22 12:20:12;;;;;;;10.38;4.43;;;;;;;17.87;38.49;101620.75;4438100;32;20044;-79
2021/03/22 12:22:38;;;;;;;12.00;4.68;;;;;;;17.50;39.13;101616.94;4442678;32;20118;-77
2021/03/22 12:25:05;;;;;;;10.57;4.18;;;;;;;17.79;38.82;101616.59;4438033;32;20120;-76
2021/03/22 12:27:30;;;;;;;10.50;4.10;;;;;;;17.99;38.12;101605.63;4435145;32;20073;-78
2021/03/22 12:29:56;;;;;;;18.77;5.15;;;;;;;18.44;37.57;101610.69;4432250;32;20095;-79
2021/03/22 12:32:25;;;;;;;12.70;4.60;;;;;;;18.37;37.57;101608.94;4440457;32;20104;-78
2021/03/22 12:34:51;;;;;;;11.93;4.60;;;;;;;18.53;37.51;101610.72;4438356;32;20103;-79
2021/03/22 12:37:34;;;;;;;21.90;9.68;;;;;;;18.78;37.09;101611.19;4440087;32;20076;-76
2021/03/22 12:40:02;;;;;;;19.83;9.13;;;;;;;18.44;37.81;101610.69;4428321;32;20100;-82
2021/03/22 12:42:29;;;;;;;20.62;9.02;;;;;;;18.61;38.13;101607.06;4439617;32;20025;-80
2021/03/22 12:44:56;;;;;;;21.27;9.93;;;;;;;18.57;37.87;101611.34;4438144;32;20064;-81
2021/03/22 12:47:27;;;;;;;14.68;6.12;;;;;;;18.82;37.48;101599.63;4429727;32;20456;-80
2021/03/22 12:49:54;;;;;;;14.13;5.10;;;;;;;18.97;36.29;101595.69;4436369;32;20127;-81
2021/03/22 12:52:19;;;;;;;12.73;5.22;;;;;;;18.53;36.74;101587.91;4435923;32;20068;-81
2021/03/22 12:54:45;;;;;;;12.48;5.35;;;;;;;18.83;36.37;101598.38;4437486;32;20118;-81
2021/03/22 12:57:27;;;;;;;8.25;4.35;;;;;;;18.77;36.50;101598.22;4430065;32;20180;-82
2021/03/22 12:59:56;;;;;;;9.20;4.30;;;;;;;19.18;35.47;101599.63;4438454;32;20073;-81
2021/03/22 13:02:25;;;;;;;12.68;4.50;;;;;;;18.63;35.88;101589.50;4425685;32;20120;-80
2021/03/22 13:04:52;;;;;;;10.90;4.05;;;;;;;18.61;36.10;101594.88;4425366;32;20424;-80
2021/03/22 13:07:18;;;;;;;23.85;5.30;;;;;;;18.62;36.26;101582.22;4419250;32;20072;-83
2021/03/22 13:09:46;;;;;;;8.27;4.25;;;;;;;18.87;35.95;101585.53;4426358;32;20102;-83
2021/03/22 13:12:21;;;;;;;7.03;3.60;;;;;;;18.91;35.68;101571.94;4428472;32;20115;-81
2021/03/22 13:14:48;;;;;;;13.73;5.18;;;;;;;18.84;35.87;101566.50;4423072;32;20464;-83
2021/03/22 13:17:15;;;;;;;10.55;3.70;;;;;;;18.34;36.62;101557.75;4423896;32;20145;-82
2021/03/22 13:19:42;;;;;;;10.38;4.40;;;;;;;18.79;36.25;101563.50;4421185;32;20415;-80
2021/03/22 13:22:08;;;;;;;11.18;6.00;;;;;;;18.52;36.29;101563.50;4412674;32;20073;-84
2021/03/22 13:24:35;;;;;;;11.35;4.95;;;;;;;18.48;36.49;101565.72;4411850;32;21648;-80
2021/03/22 13:27:00;;;;;;;15.32;5.55;;;;;;;18.43;36.38;101555.72;4411675;32;20114;-78
2021/03/22 13:29:26;;;;;;;13.82;6.75;;;;;;;18.52;36.42;101550.03;4415456;32;21590;-79
2021/03/22 13:31:52;;;;;;;11.80;5.78;;;;;;;18.62;36.02;101548.78;4414961;32;20093;-77
2021/03/22 13:34:18;;;;;;;13.30;7.28;;;;;;;19.01;35.58;101553.53;4416098;32;20041;-77
2021/03/22 13:36:44;;;;;;;17.37;7.28;;;;;;;19.53;34.76;101555.97;4414461;32;20169;-77
2021/03/22 13:39:11;;;;;;;15.50;7.85;;;;;;;19.66;33.85;101550.03;4413502;32;20070;-75
2021/03/22 13:41:42;;;;;;;15.75;6.90;;;;;;;19.69;33.77;101547.03;4414802;32;20116;-77
2021/03/22 13:44:08;;;;;;;14.68;6.87;;;;;;;19.33;34.39;101550.00;4411998;32;20227;-77
2021/03/22 13:46:34;;;;;;;13.62;6.87;;;;;;;19.19;34.96;101539.22;4412372;32;20107;-79
2021/03/22 13:49:01;;;;;;;14.85;7.07;;;;;;;19.02;35.33;101535.13;4414758;32;20120;-77
2021/03/22 13:51:31;;;;;;;17.00;6.50;;;;;;;19.25;34.41;101543.03;4412433;32;20085;-81
2021/03/22 13:53:59;;;;;;;13.55;5.93;;;;;;;19.49;33.70;101528.87;4408610;32;20042;-82
2021/03/22 13:56:26;;;;;;;9.43;5.65;;;;;;;19.63;33.39;101540.38;4413635;32;20131;-80
2021/03/22 13:58:51;;;;;;;14.32;6.15;;;;;;;19.87;33.47;101534.72;4411320;32;20093;-81
2021/03/22 14:01:17;;;;;;;13.27;5.47;;;;;;;19.20;34.64;101534.28;4410269;32;20100;-81
2021/03/22 14:03:44;;;;;;;12.32;5.68;;;;;;;19.10;34.88;101529.88;4411897;32;20381;-79
2021/03/22 14:06:11;;;;;;;9.98;5.60;;;;;;;19.01;35.75;101527.03;4413790;32;20050;-79
2021/03/22 14:08:37;;;;;;;10.38;5.55;;;;;;;18.78;36.61;101539.13;4410576;32;20081;-79
2021/03/22 14:11:04;;;;;;;10.88;4.87;;;;;;;18.33;37.55;101525.63;4413079;32;20081;-77
2021/03/22 14:13:30;;;;;;;15.15;5.10;;;;;;;18.32;37.42;101523.25;4411839;32;20071;-80
2021/03/22 14:15:56;;;;;;;16.65;5.65;;;;;;;18.46;37.34;101532.00;4413296;32;20078;-78
2021/03/22 14:18:24;;;;;;;23.77;6.72;;;;;;;18.62;37.33;101522.34;4413532;32;20198;-78
2021/03/22 14:20:51;;;;;;;12.48;5.90;;;;;;;18.93;36.91;101520.09;4413204;32;20089;-80
2021/03/22 14:23:21;;;;;;;12.45;5.47;;;;;;;18.79;37.78;101510.12;4407107;32;20060;-82
2021/03/22 14:25:48;;;;;;;15.07;6.28;;;;;;;19.07;37.15;101519.44;4401673;32;20126;-81
2021/03/22 14:28:18;;;;;;;15.52;5.32;;;;;;;19.19;36.84;101515.59;4403794;32;20474;-80
2021/03/22 14:30:45;;;;;;;14.38;5.35;;;;;;;19.34;36.44;101507.97;4410980;32;20918;-79
2021/03/22 14:33:15;;;;;;;13.62;6.40;;;;;;;19.34;36.87;101514.50;4409416;32;20069;-82
2021/03/22 14:35:41;;;;;;;15.80;7.00;;;;;;;19.41;36.49;101514.13;4414053;32;20448;-83
2021/03/22 14:38:07;;;;;;;13.48;8.30;;;;;;;19.21;36.29;101515.91;4410871;32;20157;-82
2021/03/22 14:40:33;;;;;;;14.90;7.60;;;;;;;18.80;36.86;101511.72;4415436;32;20134;-78
2021/03/22 14:42:59;;;;;;;18.58;7.87;;;;;;;18.69;37.08;101519.16;4409896;32;20466;-81
2021/03/22 14:45:28;;;;;;;16.35;7.40;;;;;;;18.69;37.35;101490.66;4414636;32;20450;-83
2021/03/22 14:47:54;;;;;;;12.90;6.18;;;;;;;18.73;37.25;101503.47;4411158;32;20074;-83
2021/03/22 14:50:23;;;;;;;17.62;6.40;;;;;;;18.67;37.29;101501.72;4411521;32;20120;-80
2021/03/22 14:52:50;;;;;;;11.63;6.05;;;;;;;18.24;37.85;101497.13;4411994;32;20088;-79
2021/03/22 14:55:18;;;;;;;16.35;6.53;;;;;;;17.97;38.91;101487.75;4408054;32;20135;-80
2021/03/22 14:57:44;;;;;;;12.13;5.62;;;;;;;18.15;38.76;101494.25;4410811;32;20108;-78